createdAt,value
2023-01-04T00:06:48.487Z,8.3
2023-01-04T00:21:48.530Z,8.6
2023-01-04T00:36:48.486Z,8.5
2023-01-04T00:51:48.490Z,8.2
2023-01-04T01:06:48.507Z,8.2
2023-01-04T01:21:48.506Z,8.3
2023-01-04T01:36:48.517Z,8.4
2023-01-04T01:51:48.523Z,8.3
2023-01-04T02:06:48.499Z,8.4
2023-01-04T02:21:48.497Z,8.4
2023-01-04T02:36:48.511Z,8.5
2023-01-04T02:51:48.523Z,8.6
2023-01-04T03:06:48.465Z,8.8
2023-01-04T03:21:48.492Z,8.9
2023-01-04T03:36:48.492Z,8.6
2023-01-04T03:51:48.484Z,8.7
2023-01-04T04:06:48.770Z,8.8
2023-01-04T04:21:48.418Z,8.9
2023-01-04T04:36:48.515Z,9.1
2023-01-04T04:51:48.507Z,9.1
2023-01-04T05:06:48.483Z,9.1
2023-01-04T05:21:48.775Z,9.2
2023-01-04T05:36:48.474Z,9.3
2023-01-04T05:51:48.488Z,9.4
2023-01-04T06:06:48.532Z,9.6
2023-01-04T06:21:48.502Z,9.6
2023-01-04T06:36:48.522Z,9.7
2023-01-04T06:51:48.485Z,9.8
2023-01-04T07:06:48.490Z,9.8
2023-01-04T07:21:48.499Z,9.8
2023-01-04T07:36:48.520Z,9.7
2023-01-04T07:51:48.517Z,9.4
2023-01-04T08:06:48.523Z,9.6
2023-01-04T08:21:48.510Z,9.8
2023-01-04T08:36:48.595Z,10.1
2023-01-04T08:51:48.486Z,10.2
2023-01-04T09:06:48.529Z,10.3
2023-01-04T09:21:48.525Z,10.4
2023-01-04T09:36:48.598Z,10.1
2023-01-04T09:51:48.418Z,10.2
2023-01-04T10:06:48.514Z,10.1
2023-01-04T10:21:48.537Z,10.2
2023-01-04T10:36:48.503Z,10.2
2023-01-04T10:51:48.517Z,10.2
2023-01-04T11:06:48.511Z,10.3
2023-01-04T11:21:48.505Z,10.4
2023-01-04T11:36:48.549Z,10.4
2023-01-04T11:51:48.494Z,10.4
2023-01-04T12:06:48.496Z,10.4
2023-01-04T12:21:48.530Z,10.4
2023-01-04T12:36:48.518Z,10.4
2023-01-04T12:52:12.712Z,10.4
2023-01-04T13:06:48.497Z,10.5
2023-01-04T13:21:48.524Z,10.6
2023-01-04T13:36:48.520Z,10.6
2023-01-04T13:51:48.517Z,10.7
2023-01-04T14:06:48.545Z,10.9
2023-01-04T14:21:48.514Z,10.9
2023-01-04T14:36:48.523Z,11.1
2023-01-04T14:51:48.544Z,11.1
2023-01-04T15:06:48.520Z,10.8
2023-01-04T15:21:48.500Z,10.7
2023-01-04T15:36:48.491Z,10.8
2023-01-04T15:51:48.545Z,10.9
2023-01-04T16:06:48.407Z,11
2023-01-04T16:21:48.526Z,10.8
2023-01-04T16:36:48.493Z,11.1
2023-01-04T16:51:48.511Z,11.2
2023-01-04T17:06:48.498Z,11.1
2023-01-04T17:21:48.399Z,11.1
2023-01-04T17:36:48.498Z,11.1
2023-01-04T17:51:48.516Z,11.1
2023-01-04T18:06:48.513Z,11.1
2023-01-04T18:21:48.440Z,11.1
2023-01-04T18:36:48.475Z,10.9
2023-01-04T18:51:48.522Z,10.9
2023-01-04T19:06:48.532Z,11.1
2023-01-04T19:21:48.519Z,11.2
2023-01-04T19:36:48.525Z,11.2
2023-01-04T19:51:48.539Z,10.9
2023-01-04T20:06:48.529Z,10.8
2023-01-04T20:21:48.522Z,11
2023-01-04T20:36:48.481Z,11.1
2023-01-04T20:51:48.558Z,11
2023-01-04T21:06:48.498Z,10.9
2023-01-04T21:21:48.518Z,10.8
2023-01-04T21:36:48.502Z,10.9
2023-01-04T21:51:48.523Z,10.8
2023-01-04T22:06:48.481Z,10.8
2023-01-04T22:21:48.517Z,10.6
2023-01-04T22:36:48.501Z,10.5
2023-01-04T22:51:48.539Z,10.4
2023-01-04T23:06:48.515Z,10.2
2023-01-04T23:21:48.510Z,10.2
2023-01-04T23:36:48.498Z,10.1
2023-01-04T23:51:48.495Z,10
